»·PEaware :: N752X KYKM-KBFI

N752X :: KYKM-KBFI

FLIGHT INFORMATION

Flight Status: Arrived
Operator: Privately registered:
United States
More flights under this callsign
Pilot: Ernest M. (83)
Aircraft: CESSNA 206 STATIONAIR
(C206)
More flights by this aircraft type
Origin: KYKM Yakima Air Term/Mcallister
United States
Destination: KBFI Boeing Field/King Co Intl
United States
More flights between these airports :: More routes between these airports
Route: +
File this flight plan on PilotEdge
Remarks:
Altitude:
(Current/Filed)
0ft
Speed:
(Current/Filed)
0kts
Departed: 03-Nov-17 08:03 PM
Arrived: 03-Nov-17 08:54 PM
Distance/Time
Traveled:
2568nm/0:50
Distance/Time
To Go:
Arrived

Flight Plot

Page will automatically refresh every two minutes.

Flight plan parsing failed; only flown route is shown


Map Options




Map Legend


Flown Route
Filed Route
Departure Airport
Arrival Airport
Navaid (VOR, NDB)
Fix

Horizontal Profiles

Position Reports

Time Latitude Longitude Heading Altitude Ground
Speed
03-Nov-17 20:07 46.725859 -120.788368 298 9739ft 90kts
03-Nov-17 20:08 46.740502 -120.820081 298 10230ft 125kts
03-Nov-17 20:09 46.760671 -120.866946 298 10045ft 159kts
03-Nov-17 20:10 46.781529 -120.915077 301 9971ft 158kts
03-Nov-17 20:11 46.802701 -120.960596 302 9972ft 154kts
03-Nov-17 20:12 46.820349 -121.002204 302 9972ft 152kts
03-Nov-17 20:13 46.837416 -121.041345 301 10458ft 136kts
03-Nov-17 20:14 46.852509 -121.071686 309 10457ft 146kts
03-Nov-17 20:15 46.868829 -121.099730 309 10455ft 148kts
03-Nov-17 20:16 46.885002 -121.127683 308 10456ft 149kts
03-Nov-17 20:17 46.901082 -121.155422 308 10453ft 144kts
03-Nov-17 20:18 46.916338 -121.181566 308 10454ft 137kts
03-Nov-17 20:19 46.931834 -121.207973 308 10455ft 135kts
03-Nov-17 20:20 46.949319 -121.237691 308 10460ft 134kts
03-Nov-17 20:21 46.968492 -121.270213 308 10467ft 135kts
03-Nov-17 20:22 46.985748 -121.299563 308 10388ft 139kts
03-Nov-17 20:23 47.006947 -121.335707 308 10397ft 137kts
03-Nov-17 20:24 47.027966 -121.371563 308 10414ft 137kts
03-Nov-17 20:25 47.048602 -121.406852 308 10432ft 138kts
03-Nov-17 20:26 47.068922 -121.441623 308 10444ft 139kts
03-Nov-17 20:27 47.088589 -121.475278 308 10446ft 139kts
03-Nov-17 20:28 47.108579 -121.509503 308 10446ft 139kts
03-Nov-17 20:29 47.127738 -121.542274 308 10445ft 139kts
03-Nov-17 20:30 47.146797 -121.574966 308 10445ft 139kts
03-Nov-17 20:31 47.168508 -121.612123 308 10445ft 139kts
03-Nov-17 20:32 47.192168 -121.652622 309 10445ft 139kts
03-Nov-17 20:33 47.212591 -121.687565 309 9854ft 142kts
03-Nov-17 20:34 47.230311 -121.718815 309 8099ft 177kts
03-Nov-17 20:35 47.247711 -121.746261 320 7429ft 154kts
03-Nov-17 20:36 47.263817 -121.771036 304 6923ft 144kts
03-Nov-17 20:37 47.272971 -121.800077 289 6271ft 149kts
03-Nov-17 20:38 47.281522 -121.825815 309 5723ft 147kts
03-Nov-17 20:39 47.292944 -121.846668 310 5380ft 138kts
03-Nov-17 20:40 47.304507 -121.865447 313 5234ft 123kts
03-Nov-17 20:41 47.315936 -121.883095 313 5132ft 110kts
03-Nov-17 20:42 47.325319 -121.899500 308 4934ft 115kts
03-Nov-17 20:43 47.347792 -121.934805 319 4161ft 131kts
03-Nov-17 20:44 47.374346 -121.969371 317 3929ft 144kts
03-Nov-17 20:45 47.400421 -122.002981 316 3500ft 153kts
03-Nov-17 20:46 47.414065 -122.027428 307 3487ft 145kts
03-Nov-17 20:47 47.425368 -122.052209 293 3489ft 143kts
03-Nov-17 20:48 47.435646 -122.089584 292 2902ft 154kts
03-Nov-17 20:49 47.444271 -122.121233 292 2800ft 148kts
03-Nov-17 20:50 47.453243 -122.153970 291 2799ft 144kts
03-Nov-17 20:51 47.461462 -122.184248 291 2799ft 142kts
03-Nov-17 20:52 47.471707 -122.213389 308 2490ft 130kts
03-Nov-17 20:53 47.487742 -122.241541 299 1515ft 118kts
03-Nov-17 20:54 47.499517 -122.268890 310 1193ft 114kts
03-Nov-17 20:55 47.517919 -122.285424 339 1168ft 111kts
03-Nov-17 20:56 47.538496 -122.298331 327 943ft 114kts
03-Nov-17 20:57 47.551099 -122.313365 272 734ft 79kts
03-Nov-17 20:58 47.539840 -122.308996 149 171ft 70kts
03-Nov-17 20:59 47.532621 -122.302433 11 17ft 10kts
03-Nov-17 21:00 47.533205 -122.302280 351 19ft 6kts
03-Nov-17 21:01 47.533287 -122.302299 350 19ft 8kts
03-Nov-17 21:02 4.966718 6.923318 26 899ft 88kts
03-Nov-17 21:03 4.985384 6.933345 25 417ft 95kts
03-Nov-17 21:04 5.006798 6.944916 28 118ft 75kts
03-Nov-17 21:05 5.014859 6.949307 32 101ft 58kts
03-Nov-17 21:06 14.018976 -87.229767 46 3949ft 90kts
03-Nov-17 21:07 14.033150 -87.228511 323 4033ft 78kts
03-Nov-17 21:08 14.055830 -87.218973 19 3317ft 85kts
03-Nov-17 21:09 14.064266 -87.216022 17 3253ft 56kts
03-Nov-17 21:10 14.044491 -87.228731 351 3581ft 212kts
03-Nov-17 21:11 14.047530 -87.266300 189 5290ft 215kts
03-Nov-17 21:12 14.032018 -87.227851 53 4290ft 198kts
03-Nov-17 21:13 14.073814 -87.212269 31 3169ft 53kts

Navigation Log

Ident Type
Flight plan parsing failed, navigation log unavailable